M I D A S
Marine Information and Data Acquisition System
Tripno 1868 of the Zeeleeuw from 2010-04-26 10:11:46 to 2010-04-26 14:43:17
Back to CruiseResearch ActivitiesStationsMapUnderway DataData graphs

EquipmentUnitsComments
TimeDGPSUTC
LatitudeDGPSDM.mWGS84
LongitudeDGPSDM.mWGS84
SpeedMeteo Stationm/sRelative wind speed
DirectionMeteo StationdegRelative wind direction
TemperatureMeteo Stationdeg CelciusAir temperature
PressureMeteo StationPaAtmospheric pressure
HumidityMeteo Station%Relative humidity
Missing or incorrect values are displayed as -999
Metereological data collected by the RV Zeeleeuw from 2010-04-26 07:09:07 to 2010-04-26 15:02:00
Time Latitude Longitude Speed Direction Temperature Pressure Humidity
2010-04-26 07:10 51°13.683 2°55.857 6.2 26 10.8 102450 42
2010-04-26 07:11 51°13.693 2°55.766 1.9 25 10.8 102450 39
2010-04-26 07:12 51°13.696 2°55.766 2.8 28 10.8 102460 43
2010-04-26 07:13 51°13.7 2°55.759 2.6 253 10.9 102450 39
2010-04-26 07:14 51°13.748 2°55.719 7.6 26 11 102450 42
2010-04-26 07:15 51°13.826 2°55.643 4.3 22 11 102440 39
2010-04-26 07:16 51°13.903 2°55.566 1.3 342 11 102450 41
2010-04-26 07:17 51°13.959 2°55.508 5 22 11.1 102450 42
2010-04-26 07:18 51°13.996 2°55.459 0.7 357 11 102460 41
2010-04-26 07:19 51°14.004 2°55.453 0.8 30 11 102460 39
2010-04-26 07:20 51°14.003 2°55.451 5 20 11 102460 42
2010-04-26 07:21 51°14.005 2°55.452 2.3 260 11 102460 44
2010-04-26 07:22 51°14.005 2°55.451 4 24 11 102460 43
2010-04-26 07:23 51°14.005 2°55.452 2.1 255 10.9 102460 42
2010-04-26 07:24 51°14.004 2°55.451 5.3 257 10.9 102470 41
2010-04-26 07:25 51°14.003 2°55.448 2.7 268 10.8 102480 42
2010-04-26 07:26 51°14.003 2°55.45 2.7 252 10.8 102470 43
2010-04-26 07:27 51°14.004 2°55.45 5.2 27 10.7 102460 39
2010-04-26 07:28 51°14.004 2°55.45 4.8 247 10.7 102470 42
2010-04-26 07:29 51°14.004 2°55.451 3.4 21 10.6 102460 41
2010-04-26 07:30 51°14.004 2°55.451 3.6 251 10.5 102470 42
2010-04-26 07:31 51°14.004 2°55.451 3.7 24 10.4 102470 39
2010-04-26 07:32 51°14.004 2°55.451 3.4 23 10.3 102470 38
2010-04-26 07:33 51°14.004 2°55.451 6.2 247 10.2 102470 39
2010-04-26 07:34 51°14.005 2°55.452 4.3 257 10 102470 41
2010-04-26 07:35 51°14.005 2°55.452 2.7 270 10 102480 41
2010-04-26 07:36 51°14.005 2°55.452 2.7 29 10 102480 43
2010-04-26 07:37 51°14.005 2°55.451 2.2 250 9.9 102480 42
2010-04-26 07:38 51°14.005 2°55.452 2.6 244 9.9 102470 42
2010-04-26 07:39 51°14.004 2°55.451 5.9 26 9.9 102470 42
2010-04-26 07:40 51°14.004 2°55.452 3.7 258 9.8 102470 41
2010-04-26 07:41 51°14.004 2°55.452 2.3 250 9.8 102470 39
2010-04-26 07:42 51°14.004 2°55.452 3 262 9.8 102470 40
2010-04-26 07:43 51°14.004 2°55.453 2.7 259 9.8 102480 41
2010-04-26 07:44 51°14.004 2°55.453 4.3 246 9.8 102470 42
2010-04-26 07:45 51°14.004 2°55.452 4.7 254 9.8 102480 39
2010-04-26 07:46 51°14.004 2°55.452 5.1 26 9.7 102470 43
2010-04-26 07:47 51°14.004 2°55.453 5.7 27 9.7 102480 39
2010-04-26 07:48 51°14.004 2°55.452 1.4 25 9.6 102480 35
2010-04-26 07:49 51°14.004 2°55.452 4.5 255 9.6 102480 40
2010-04-26 07:50 51°14.004 2°55.452 4.5 285 9.6 102480 40
2010-04-26 07:51 51°14.004 2°55.451 4.3 281 9.6 102480 43
2010-04-26 07:52 51°14.004 2°55.451 3.5 259 9.6 102480 43
2010-04-26 07:53 51°14.005 2°55.452 3.8 22 9.6 102480 41
2010-04-26 07:55 51°14.005 2°55.451 4.8 284 9.6 102480 40
2010-04-26 07:56 51°14.004 2°55.451 2.1 279 9.6 102490 45
2010-04-26 07:57 51°14.004 2°55.451 3.4 285 9.6 102480 40
2010-04-26 07:58 51°14.004 2°55.451 5.4 278 9.6 102480 40
2010-04-26 07:59 51°14.005 2°55.451 2.9 284 9.6 102480 42
2010-04-26 08:00 51°14.005 2°55.452 3.5 279 9.6 102480 43
2010-04-26 08:01 51°14.005 2°55.452 2.7 282 9.6 102490 40
2010-04-26 08:02 51°14.005 2°55.451 2.2 80 9.6 102490 40
2010-04-26 08:03 51°14.005 2°55.451 2.1 281 9.6 102480 40
2010-04-26 08:04 51°14.005 2°55.451 2.8 279 9.6 102480 41
2010-04-26 08:05 51°14.005 2°55.451 1.5 278 9.6 102480 40
2010-04-26 08:06 51°14.004 2°55.451 2.8 280 9.6 102480 40
2010-04-26 08:07 51°14.004 2°55.451 4.1 284 9.6 102480 41
2010-04-26 08:08 51°14.005 2°55.451 1.9 79 9.6 102470 40
2010-04-26 08:09 51°14.005 2°55.451 2.2 278 9.5 102470 43
2010-04-26 08:10 51°14.005 2°55.451 4.8 278 9.5 102470 41
2010-04-26 08:11 51°14.004 2°55.451 6.5 283 9.6 102470 40
2010-04-26 08:12 51°14.004 2°55.452 1.9 281 9.5 102470 43
2010-04-26 08:13 51°14.004 2°55.452 4.2 283 9.6 102470 41
2010-04-26 08:14 51°14.004 2°55.452 5 285 9.5 102470 40
2010-04-26 08:15 51°14.004 2°55.452 2.7 280 9.5 102470 40
2010-04-26 08:16 51°14.004 2°55.452 2 279 9.5 102480 41
2010-04-26 08:17 51°14.004 2°55.452 5 283 9.5 102480 41
2010-04-26 08:18 51°14.004 2°55.452 2.2 285 9.5 102470 40
2010-04-26 08:19 51°14.004 2°55.451 3.2 80 9.4 102470 43
2010-04-26 08:20 51°14.004 2°55.452 1.8 280 9.4 102470 40
2010-04-26 08:21 51°14.005 2°55.451 3.1 282 9.5 102470 41
2010-04-26 08:22 51°14.004 2°55.451 1.9 279 9.5 102470 40
2010-04-26 08:23 51°14.004 2°55.451 1.2 83 9.5 102480 44
2010-04-26 08:24 51°14.004 2°55.45 2.3 285 9.5 102470 40
2010-04-26 08:25 51°14.005 2°55.45 4.6 286 9.5 102470 43
2010-04-26 08:26 51°14.005 2°55.45 2.8 279 9.5 102480 40
2010-04-26 08:27 51°14.005 2°55.45 4.7 284 9.5 102470 44
2010-04-26 08:28 51°14.005 2°55.45 5.5 284 9.5 102470 43
2010-04-26 08:29 51°14.005 2°55.45 4.7 284 9.5 102470 43
2010-04-26 08:30 51°14.005 2°55.451 3.9 280 9.4 102480 40
2010-04-26 08:31 51°14.005 2°55.45 7.3 285 9.4 102480 43
2010-04-26 08:32 51°14.005 2°55.45 5.7 280 9.3 102480 40
2010-04-26 08:33 51°14.005 2°55.45 5.2 279 9.3 102480 44
2010-04-26 08:34 51°14.006 2°55.451 3.7 279 9.3 102480 40
2010-04-26 08:35 51°14.005 2°55.45 3.6 284 9.3 102470 41
2010-04-26 08:36 51°14.004 2°55.45 3.8 279 9.3 102480 40
2010-04-26 08:37 51°14.005 2°55.45 3.3 280 9.3 102480 40
2010-04-26 08:38 51°14.005 2°55.451 7.9 282 9.3 102490 43
2010-04-26 08:39 51°14.005 2°55.451 2.1 282 9.3 102490 42
2010-04-26 08:40 51°14.004 2°55.451 3.5 79 9.3 102480 44
2010-04-26 08:41 51°14.004 2°55.451 4.6 285 9.3 102480 41
2010-04-26 08:42 51°14.005 2°55.451 1.9 284 9.3 102470 44
2010-04-26 08:43 51°14.005 2°55.451 3.6 284 9.4 102480 40
2010-04-26 08:44 51°14.004 2°55.451 2.5 284 9.4 102470 42
2010-04-26 08:45 51°14.004 2°55.451 2.9 286 9.4 102470 44
2010-04-26 08:46 51°14.004 2°55.451 3.2 284 9.4 102480 42
2010-04-26 08:47 51°14.005 2°55.451 3.3 282 9.4 102480 41
2010-04-26 08:48 51°14.005 2°55.451 3.4 278 9.4 102470 40
2010-04-26 08:49 51°14.005 2°55.452 2.7 279 9.4 102470 40
2010-04-26 08:50 51°14.004 2°55.452 2.2 284 9.4 102470 42
2010-04-26 08:51 51°14.003 2°55.452 2.4 279 9.5 102480 43
2010-04-26 08:52 51°14.003 2°55.452 6.7 283 9.5 102480 40
2010-04-26 08:53 51°14.004 2°55.452 5 285 9.5 102470 42
2010-04-26 08:54 51°14.004 2°55.452 4.4 278 9.6 102480 40
2010-04-26 08:55 51°14.004 2°55.452 1.3 277 9.6 102480 42
2010-04-26 08:56 51°14.006 2°55.453 0.7 286 9.7 102480 42
2010-04-26 08:57 51°14.003 2°55.452 1.7 287 9.7 102480 41
2010-04-26 08:58 51°14.003 2°55.452 3.7 286 9.7 102480 42
2010-04-26 08:59 51°14.003 2°55.452 3.7 280 9.7 102480 41
2010-04-26 09:00 51°14.001 2°55.451 2.5 287 9.7 102480 44
2010-04-26 09:01 51°14.002 2°55.451 1 80 9.7 102490 40
2010-04-26 09:02 51°14.004 2°55.451 1.9 290 9.7 102490 37
2010-04-26 09:03 51°14.003 2°55.45 3.1 278 9.8 102490 41
2010-04-26 09:04 51°14.009 2°55.451 8 286 9.7 102490 40
2010-04-26 09:05 51°13.998 2°55.45 2.4 280 9.8 102490 41
2010-04-26 09:06 51°14.004 2°55.451 3.2 279 9.8 102490 41
2010-04-26 09:07 51°14.005 2°55.45 2.2 279 9.8 102500 40
2010-04-26 09:08 51°14.005 2°55.451 5.5 280 9.9 102490 43
2010-04-26 09:09 51°14.006 2°55.451 2.2 285 9.8 102490 44
2010-04-26 09:10 51°14.006 2°55.451 4.4 284 9.9 102500 44
2010-04-26 09:11 51°14.006 2°55.451 3.2 278 9.9 102500 41
2010-04-26 09:12 51°14.005 2°55.451 3.4 284 9.9 102490 40
2010-04-26 09:13 51°14.01 2°55.452 2.8 284 9.9 102500 44
2010-04-26 09:14 51°14.01 2°55.453 2.8 284 9.8 102490 43
2010-04-26 09:15 51°14.009 2°55.453 3.6 280 9.8 102490 40
2010-04-26 09:16 51°14.008 2°55.452 1.2 287 9.9 102500 42
2010-04-26 09:17 51°14.006 2°55.452 2.7 280 9.9 102490 40
2010-04-26 09:18 51°14.005 2°55.452 2.7 290 10 102500 41
2010-04-26 09:19 51°14.005 2°55.452 3.2 284 10 102490 43
2010-04-26 09:20 51°14.004 2°55.452 2.6 286 10 102500 42
2010-04-26 09:21 51°14.004 2°55.452 1.8 284 10.1 102500 44
2010-04-26 09:22 51°14.009 2°55.453 2.7 282 10.2 102500 41
2010-04-26 09:23 51°14.005 2°55.452 3.7 284 10.2 102500 44
2010-04-26 09:24 51°14.009 2°55.453 2.9 278 10.2 102500 44
2010-04-26 09:25 51°14.002 2°55.452 4.5 275 10.3 102500 44
2010-04-26 09:26 51°14.004 2°55.452 3.3 281 10.2 102500 43
2010-04-26 09:27 51°14.004 2°55.452 1.5 279 10.2 102500 41
2010-04-26 09:28 51°14.003 2°55.452 2.3 74 10.2 102510 43
2010-04-26 09:29 51°14.002 2°55.452 3.7 279 10.2 102500 43
2010-04-26 09:30 51°14.001 2°55.451 3.1 280 10.3 102500 41
2010-04-26 09:31 51°14.007 2°55.452 2.4 278 10.3 102510 44
2010-04-26 09:32 51°14.005 2°55.451 4.9 282 10.3 102530 39
2010-04-26 09:33 51°14.004 2°55.452 3.4 286 10.3 102500 41
2010-04-26 09:34 51°14.003 2°55.452 4.2 280 10.4 102510 43
2010-04-26 09:35 51°14 2°55.455 2.7 284 10.4 102520 40
2010-04-26 09:36 51°14.034 2°55.452 3.9 278 10.4 102510 40
2010-04-26 09:37 51°14.172 2°55.385 7.9 286 10.4 102500 44
2010-04-26 09:38 51°14.345 2°55.22 10 282 10.4 102480 41
2010-04-26 09:39 51°14.55 2°55.065 10.8 281 10.3 102480 42
2010-04-26 09:40 51°14.75 2°54.889 11 284 10.1 102480 40
2010-04-26 09:41 51°14.93 2°54.679 11 283 10 102450 42
2010-04-26 09:42 51°15.086 2°54.442 10.4 280 10 102460 41
2010-04-26 09:43 51°15.319 2°54.424 6.3 285 9.9 102480 43
2010-04-26 09:44 51°15.51 2°54.693 0.3 282 9.9 102510 41
2010-04-26 09:45 51°15.636 2°55.054 1.4 283 10 102510 40
2010-04-26 09:46 51°15.784 2°55.387 2.1 281 10.1 102510 44
2010-04-26 09:47 51°15.936 2°55.727 2.8 278 10 102510 44
2010-04-26 09:48 51°16.093 2°56.07 1.4 283 10 102510 39
2010-04-26 09:49 51°16.233 2°56.441 -999 281 10 102510 42
2010-04-26 09:50 51°16.364 2°56.807 1.5 284 10 102510 41
2010-04-26 09:51 51°16.498 2°57.169 1.1 286 10.1 102510 41
2010-04-26 09:52 51°16.629 2°57.529 1.2 284 10.2 102510 43
2010-04-26 09:53 51°16.761 2°57.894 0.1 282 10.2 102510 41
2010-04-26 09:54 51°16.894 2°58.263 1.2 282 10.3 102520 42
2010-04-26 09:55 51°17.028 2°58.624 0.1 278 10.3 102520 42
2010-04-26 09:56 51°17.163 2°58.991 1 279 10.3 102520 38
2010-04-26 09:57 51°17.299 2°59.357 0.6 286 10.2 102520 41
2010-04-26 09:58 51°17.434 2°59.724 0.1 287 10.2 102510 42
2010-04-26 09:59 51°17.571 3°0.094 0.8 81 10.2 102520 40
2010-04-26 10:00 51°17.708 3°0.466 0.7 283 10.2 102520 44
2010-04-26 10:01 51°17.845 3°0.837 1.1 280 10.1 102520 40
2010-04-26 10:02 51°17.986 3°1.206 -999 282 10.1 102520 42
2010-04-26 10:03 51°18.156 3°1.542 2.8 284 10.2 102520 40
2010-04-26 10:04 51°18.337 3°1.86 2.3 286 10.2 102520 43
2010-04-26 10:05 51°18.527 3°2.162 3.6 283 10.1 102510 44
2010-04-26 10:06 51°18.715 3°2.447 2.8 281 10.1 102520 41
2010-04-26 10:07 51°18.902 3°2.748 3.9 279 10.2 102510 41
2010-04-26 10:08 51°19.087 3°3.042 3.5 280 10.2 102520 40
2010-04-26 10:09 51°19.282 3°3.325 3.5 278 10.1 102520 42
2010-04-26 10:10 51°19.484 3°3.606 3.1 279 10.1 102520 40
2010-04-26 10:11 51°19.683 3°3.874 3.2 279 10.1 102520 40
2010-04-26 10:12 51°19.879 3°4.15 2.2 279 10.1 102520 43
2010-04-26 10:13 51°20.074 3°4.428 3.7 285 10.1 102520 40
2010-04-26 10:14 51°20.273 3°4.712 2.6 284 10.1 102530 40
2010-04-26 10:15 51°20.464 3°4.985 2.9 283 10.1 102520 42
2010-04-26 10:16 51°20.659 3°5.258 3.6 279 10.1 102520 40
2010-04-26 10:17 51°20.853 3°5.534 3.9 282 10 102520 44
2010-04-26 10:18 51°21.049 3°5.814 2.7 278 10 102520 40
2010-04-26 10:19 51°21.247 3°6.105 4 285 10 102520 43
2010-04-26 10:20 51°21.445 3°6.399 4 279 10 102520 39
2010-04-26 10:21 51°21.645 3°6.692 5 279 10 102530 40
2010-04-26 10:22 51°21.83 3°6.983 3.5 284 10 102530 40
2010-04-26 10:23 51°21.983 3°7.334 0.7 278 10 102530 42
2010-04-26 10:24 51°22.126 3°7.687 0.7 281 10 102530 42
2010-04-26 10:25 51°22.276 3°8.049 1.8 286 10.1 102530 43
2010-04-26 10:26 51°22.424 3°8.397 2.5 280 10.1 102530 41
2010-04-26 10:27 51°22.572 3°8.755 0.1 282 10 102530 40
2010-04-26 10:28 51°22.655 3°9.173 0.9 9 10.1 102530 41
2010-04-26 10:29 51°22.679 3°9.586 2.1 8 10 102530 39
2010-04-26 10:30 51°22.698 3°10.016 2 17 9.9 102530 43
2010-04-26 10:31 51°22.711 3°10.43 1.2 7 9.8 102530 41
2010-04-26 10:32 51°22.725 3°10.74 2.9 43 9.8 102540 44
2010-04-26 10:33 51°22.739 3°10.955 4.1 80 9.8 102540 41
2010-04-26 10:34 51°22.723 3°11.118 5.9 19 9.7 102530 41
2010-04-26 10:35 51°22.659 3°11.222 7.7 1 9.7 102520 44
2010-04-26 10:36 51°22.575 3°11.28 7.6 347 9.5 102510 41
2010-04-26 10:37 51°22.56 3°11.237 7.5 282 9.5 102530 42
2010-04-26 10:38 51°22.59 3°11.262 8.4 284 9.5 102520 43
2010-04-26 10:39 51°22.62 3°11.311 7.7 279 9.6 102530 42
2010-04-26 10:40 51°22.644 3°11.367 6.1 284 9.7 102520 41
2010-04-26 10:41 51°22.667 3°11.43 6.7 280 9.7 102530 44
2010-04-26 10:42 51°22.685 3°11.496 6 279 9.8 102530 44
2010-04-26 10:43 51°22.702 3°11.566 7 284 9.8 102520 43
2010-04-26 10:44 51°22.718 3°11.64 6.4 283 9.8 102520 42
2010-04-26 10:45 51°22.733 3°11.715 6.2 279 9.8 102530 44
2010-04-26 10:46 51°22.746 3°11.789 4 284 9.8 102520 42
2010-04-26 10:47 51°22.759 3°11.862 6 284 9.8 102520 44
2010-04-26 10:48 51°22.773 3°11.939 4.3 283 9.7 102520 41
2010-04-26 10:49 51°22.786 3°12.011 4.5 280 9.7 102520 40
2010-04-26 10:50 51°22.798 3°12.086 5.5 279 9.7 102520 41
2010-04-26 10:51 51°22.831 3°12.165 5.7 76 9.7 102520 45
2010-04-26 10:52 51°22.862 3°12.306 5.3 36 9.6 102530 40
2010-04-26 10:53 51°22.826 3°12.436 7.1 9 9.5 102530 43
2010-04-26 10:54 51°22.758 3°12.5 7.6 356 9.4 102520 41
2010-04-26 10:55 51°22.69 3°12.491 7.9 284 9.3 102520 41
2010-04-26 10:56 51°22.657 3°12.395 8.6 277 9.4 102530 42
2010-04-26 10:57 51°22.621 3°12.252 9 281 9.4 102530 44
2010-04-26 10:58 51°22.584 3°12.098 9.1 286 9.5 102520 41
2010-04-26 10:59 51°22.546 3°11.942 10.2 286 9.5 102520 43
2010-04-26 11:00 51°22.509 3°11.783 8.6 280 9.5 102520 41
2010-04-26 11:01 51°22.473 3°11.633 9.1 331 9.5 102530 44
2010-04-26 11:02 51°22.462 3°11.506 7.3 305 9.4 102530 44
2010-04-26 11:04 51°22.527 3°11.509 8 280 9.4 102510 42
2010-04-26 11:05 51°22.555 3°11.548 7.7 -999 9.5 102520 43
2010-04-26 11:06 51°22.579 3°11.598 7.7 278 9.5 102520 42
2010-04-26 11:07 51°22.599 3°11.654 7.9 -999 9.6 102520 42
2010-04-26 11:08 51°22.617 3°11.716 7 278 9.6 102520 44
2010-04-26 11:09 51°22.633 3°11.777 7.6 -999 9.6 102530 42
2010-04-26 11:10 51°22.648 3°11.839 8.1 285 9.7 102520 42
2010-04-26 11:11 51°22.663 3°11.903 6.2 -999 9.7 102530 41
2010-04-26 11:12 51°22.678 3°11.966 6.6 284 9.6 102520 44
2010-04-26 11:13 51°22.693 3°12.03 5.9 -999 9.6 102520 44
2010-04-26 11:14 51°22.708 3°12.094 5.1 280 9.6 102530 41
2010-04-26 11:15 51°22.723 3°12.156 6.6 -999 9.6 102520 44
2010-04-26 11:16 51°22.737 3°12.219 6.4 284 9.7 102530 45
2010-04-26 11:17 51°22.751 3°12.284 7.2 -999 9.7 102530 44
2010-04-26 11:18 51°22.764 3°12.347 6.5 284 9.6 102530 41
2010-04-26 11:19 51°22.777 3°12.411 6.2 -999 9.7 102530 41
2010-04-26 11:20 51°22.789 3°12.475 5.4 279 9.7 102530 43
2010-04-26 11:21 51°22.801 3°12.54 5.9 -999 9.7 102530 41
2010-04-26 11:22 51°22.813 3°12.604 5.2 283 9.6 102530 41
2010-04-26 11:23 51°22.831 3°12.665 7.2 -999 9.7 102540 44
2010-04-26 11:24 51°22.866 3°12.7 6.4 280 9.7 102530 42
2010-04-26 11:25 51°22.888 3°12.706 7.2 -999 9.7 102530 42
2010-04-26 11:26 51°22.886 3°12.71 7.8 284 9.7 102530 43
2010-04-26 11:27 51°22.866 3°12.701 8.8 -999 9.6 102520 41
2010-04-26 11:28 51°22.851 3°12.663 8.6 285 9.6 102530 43
2010-04-26 11:29 51°22.834 3°12.615 8.7 -999 9.6 102520 41
2010-04-26 11:30 51°22.814 3°12.563 8.9 279 9.6 102520 44
2010-04-26 11:31 51°22.796 3°12.506 7.7 -999 9.6 102540 42
2010-04-26 11:32 51°22.776 3°12.449 7.6 278 9.7 102530 41
2010-04-26 11:33 51°22.756 3°12.392 8.1 -999 9.7 102520 42
2010-04-26 11:34 51°22.738 3°12.333 8 280 9.7 102530 41
2010-04-26 11:35 51°22.72 3°12.273 7 -999 9.7 102530 43
2010-04-26 11:36 51°22.702 3°12.211 8 282 9.8 102530 45
2010-04-26 11:37 51°22.682 3°12.148 8.5 279 9.8 102530 42
2010-04-26 11:38 51°22.654 3°12.058 8.8 284 9.8 102530 44
2010-04-26 11:39 51°22.59 3°11.807 11.5 287 9.7 102500 42
2010-04-26 11:40 51°22.515 3°11.51 12.1 286 9.8 102500 43
2010-04-26 11:41 51°22.439 3°11.217 11.5 281 9.8 102500 43
2010-04-26 11:42 51°22.365 3°10.925 13.2 286 9.8 102500 44
2010-04-26 11:43 51°22.29 3°10.624 13 281 9.8 102500 44
2010-04-26 11:44 51°22.218 3°10.329 12.5 286 9.9 102490 44
2010-04-26 11:45 51°22.145 3°10.03 11.7 279 9.9 102500 44
2010-04-26 11:46 51°22.07 3°9.734 12.4 281 9.9 102490 42
2010-04-26 11:47 51°21.98 3°9.457 12.2 285 9.9 102490 44
2010-04-26 11:48 51°21.848 3°9.222 11 283 9.9 102500 43
2010-04-26 11:49 51°21.712 3°8.987 11 281 9.9 102500 44
2010-04-26 11:50 51°21.575 3°8.742 11 282 9.9 102490 43
2010-04-26 11:51 51°21.444 3°8.503 10.4 339 9.9 102480 43
2010-04-26 11:52 51°21.312 3°8.258 10.1 284 10 102500 44
2010-04-26 11:53 51°21.176 3°8.004 11.6 340 10 102490 44
2010-04-26 11:54 51°21.049 3°7.766 10.5 284 10 102490 44
2010-04-26 11:55 51°20.916 3°7.519 11.5 340 10.1 102490 43
2010-04-26 11:56 51°20.783 3°7.27 10.4 285 10.1 102490 42
2010-04-26 11:57 51°20.65 3°7.021 10.6 339 10.1 102500 43
2010-04-26 11:58 51°20.516 3°6.77 12.2 279 10.1 102490 42
2010-04-26 11:59 51°20.383 3°6.526 10.7 339 10.1 102490 43
2010-04-26 12:00 51°20.249 3°6.281 10.6 285 10.2 102500 42
2010-04-26 12:01 51°20.111 3°6.027 10.1 338 10.2 102500 43
2010-04-26 12:02 51°19.98 3°5.784 10.7 284 10.2 102510 44
2010-04-26 12:03 51°19.844 3°5.532 12.1 343 10.2 102490 43
2010-04-26 12:04 51°19.708 3°5.28 11.2 282 10.2 102500 42
2010-04-26 12:05 51°19.576 3°5.033 10.7 341 10.2 102500 43
2010-04-26 12:06 51°19.439 3°4.776 12.1 285 10.2 102500 44
2010-04-26 12:07 51°19.305 3°4.524 11.2 342 10.2 102500 44
2010-04-26 12:08 51°19.172 3°4.276 11.4 278 10.2 102500 42
2010-04-26 12:09 51°19.041 3°4.036 10.7 341 10.2 102500 43
2010-04-26 12:10 51°18.907 3°3.79 11.3 279 10.1 102510 43
2010-04-26 12:11 51°18.788 3°3.535 12.1 341 10.2 102510 41
2010-04-26 12:12 51°18.694 3°3.262 11.6 284 10.1 102510 42
2010-04-26 12:13 51°18.595 3°2.974 10 337 10.2 102510 41
2010-04-26 12:14 51°18.502 3°2.705 11.1 280 10.2 102510 42
2010-04-26 12:15 51°18.406 3°2.426 11 338 10.2 102500 43
2010-04-26 12:16 51°18.309 3°2.146 11.4 285 10.3 102500 41
2010-04-26 12:17 51°18.212 3°1.865 11.7 337 10.3 102500 43
2010-04-26 12:18 51°18.114 3°1.581 12.1 281 10.4 102520 43
2010-04-26 12:19 51°18.019 3°1.307 12.7 336 10.5 102500 41
2010-04-26 12:20 51°17.924 3°1.028 12.4 283 10.5 102510 42
2010-04-26 12:21 51°17.827 3°0.749 11.2 335 10.6 102520 43
2010-04-26 12:22 51°17.73 3°0.468 12.2 281 10.6 102510 42
2010-04-26 12:23 51°17.634 3°0.192 12.1 337 10.7 102510 43
2010-04-26 12:24 51°17.538 2°59.913 11 279 10.7 102510 42
2010-04-26 12:25 51°17.415 2°59.655 12.3 339 10.7 102520 41
2010-04-26 12:26 51°17.265 2°59.433 11.8 279 10.8 102500 43
2010-04-26 12:27 51°17.12 2°59.21 11.2 337 10.8 102500 42
2010-04-26 12:28 51°17.023 2°58.923 10.7 278 10.9 102500 40
2010-04-26 12:29 51°16.946 2°58.616 12.9 335 11 102510 42
2010-04-26 12:30 51°16.866 2°58.311 12 285 11 102520 42
2010-04-26 12:31 51°16.776 2°58.014 11.2 282 11.1 102520 42
2010-04-26 12:32 51°16.67 2°57.732 11.8 337 11.1 102530 42
2010-04-26 12:33 51°16.56 2°57.452 11.6 283 11.1 102510 41
2010-04-26 12:34 51°16.449 2°57.174 11.4 338 11.1 102530 42
2010-04-26 12:35 51°16.329 2°56.906 11 281 11.1 102510 42
2010-04-26 12:36 51°16.204 2°56.637 12 338 11.2 102510 42
2010-04-26 12:37 51°16.069 2°56.389 10.9 283 11.2 102520 41
2010-04-26 12:38 51°15.936 2°56.141 9.8 340 11.2 102510 40
2010-04-26 12:39 51°15.804 2°55.892 12.6 340 11.2 102510 40
2010-04-26 12:40 51°15.672 2°55.643 10.9 285 11.2 102510 40
2010-04-26 12:41 51°15.543 2°55.392 10.1 341 11.2 102500 42
2010-04-26 12:42 51°15.399 2°55.162 11.3 278 11.2 102520 42
2010-04-26 12:43 51°15.239 2°54.96 10.2 345 11.2 102520 40
2010-04-26 12:44 51°15.062 2°54.805 12.5 283 11.1 102520 41
2010-04-26 12:45 51°14.888 2°54.623 11.3 346 11 102510 42
2010-04-26 12:46 51°14.718 2°54.438 10.9 281 11 102520 41
2010-04-26 12:47 51°14.575 2°54.209 12.5 337 11 102500 42
2010-04-26 12:48 51°14.464 2°53.933 10.7 283 11.1 102510 41
2010-04-26 12:49 51°14.334 2°53.678 11.2 284 11.1 102500 41
2010-04-26 12:50 51°14.19 2°53.444 11.6 341 11.2 102520 42
2010-04-26 12:51 51°14.056 2°53.186 12.4 283 11.2 102510 40
2010-04-26 12:52 51°13.94 2°52.92 11.1 336 11.2 102510 40
2010-04-26 12:53 51°13.847 2°52.623 10.9 283 11.3 102510 41
2010-04-26 12:54 51°13.754 2°52.332 12.6 281 11.3 102510 42
2010-04-26 12:55 51°13.652 2°52.042 11.4 282 11.3 102510 42
2010-04-26 12:56 51°13.534 2°51.769 12.3 281 11.3 102520 40
2010-04-26 12:57 51°13.428 2°51.53 8.9 278 11.3 102510 40
2010-04-26 12:58 51°13.419 2°51.402 8 302 11.2 102550 42
2010-04-26 12:59 51°13.451 2°51.387 6.3 -999 11.3 102550 41
2010-04-26 13:00 51°13.477 2°51.413 7.5 284 11.3 102560 43
2010-04-26 13:01 51°13.499 2°51.441 7.4 282 11.4 102560 42
2010-04-26 13:02 51°13.519 2°51.47 7 285 11.4 102560 42
2010-04-26 13:03 51°13.536 2°51.499 6.8 285 11.4 102560 42
2010-04-26 13:04 51°13.552 2°51.53 7.5 280 11.4 102570 42
2010-04-26 13:05 51°13.566 2°51.562 7.2 283 11.5 102570 40
2010-04-26 13:06 51°13.578 2°51.594 3.1 284 11.5 102570 42
2010-04-26 13:07 51°13.59 2°51.627 5.7 279 11.5 102570 39
2010-04-26 13:08 51°13.6 2°51.659 6.1 -999 11.5 102570 39
2010-04-26 13:09 51°13.618 2°51.692 5.3 308 11.5 102580 39
2010-04-26 13:10 51°13.662 2°51.764 3 79 11.5 102580 43
2010-04-26 13:11 51°13.642 2°51.879 6.4 19 11.4 102580 43
2010-04-26 13:12 51°13.55 2°51.974 5.5 8 11.4 102580 40
2010-04-26 13:13 51°13.424 2°52.087 6 4 11.3 102580 39
2010-04-26 13:14 51°13.306 2°52.163 5.1 -999 11.2 102580 40
2010-04-26 13:15 51°13.239 2°52.159 6.6 355 11.1 102570 41
2010-04-26 13:16 51°13.193 2°52.129 7.1 350 11 102570 41
2010-04-26 13:17 51°13.161 2°52.084 7.2 346 11 102570 40
2010-04-26 13:18 51°13.132 2°52.016 6.6 282 11 102570 43
2010-04-26 13:19 51°13.11 2°51.933 7.2 339 11 102570 43
2010-04-26 13:20 51°13.081 2°51.855 7.4 281 11 102570 41
2010-04-26 13:21 51°13.05 2°51.78 7.1 285 11 102570 42
2010-04-26 13:22 51°13.024 2°51.703 6.8 279 11 102570 42
2010-04-26 13:23 51°12.998 2°51.623 7.5 285 11.1 102570 40
2010-04-26 13:24 51°12.97 2°51.542 6.6 284 11 102570 41
2010-04-26 13:25 51°12.944 2°51.463 6.3 341 11 102580 42
2010-04-26 13:26 51°12.916 2°51.386 6.3 -999 11 102570 40
2010-04-26 13:27 51°12.889 2°51.311 5.4 285 10.9 102580 43
2010-04-26 13:28 51°12.861 2°51.232 6.1 344 10.9 102580 41
2010-04-26 13:29 51°12.834 2°51.154 5.6 283 10.8 102580 43
2010-04-26 13:30 51°12.803 2°51.079 5.9 285 10.8 102580 43
2010-04-26 13:31 51°12.773 2°51.003 5.9 -999 10.7 102580 42
2010-04-26 13:32 51°12.744 2°50.923 5.3 280 10.7 102580 41
2010-04-26 13:33 51°12.714 2°50.842 6.2 -999 10.7 102580 42
2010-04-26 13:34 51°12.685 2°50.766 6.1 278 10.7 102580 41
2010-04-26 13:35 51°12.653 2°50.688 6.1 284 10.6 102580 44
2010-04-26 13:36 51°12.622 2°50.61 6.9 344 10.6 102570 44
2010-04-26 13:37 51°12.593 2°50.529 5.7 278 10.6 102570 41
2010-04-26 13:38 51°12.564 2°50.443 6.2 281 10.6 102580 41
2010-04-26 13:39 51°12.537 2°50.36 5.9 -999 10.6 102580 41
2010-04-26 13:40 51°12.509 2°50.275 5.8 286 10.6 102580 44
2010-04-26 13:41 51°12.48 2°50.192 5.9 279 10.6 102570 41
2010-04-26 13:42 51°12.447 2°50.109 5.3 346 10.6 102580 41
2010-04-26 13:43 51°12.408 2°50.039 5 284 10.6 102580 44
2010-04-26 13:44 51°12.371 2°49.964 6.3 346 10.5 102570 42
2010-04-26 13:45 51°12.338 2°49.883 5.8 343 10.6 102580 44
2010-04-26 13:46 51°12.306 2°49.802 5.9 341 10.6 102570 42
2010-04-26 13:47 51°12.294 2°49.709 5.9 328 10.7 102580 43
2010-04-26 13:48 51°12.304 2°49.612 5.6 307 10.7 102580 45
2010-04-26 13:49 51°12.331 2°49.523 6 309 10.8 102580 41
2010-04-26 13:50 51°12.374 2°49.448 5.4 283 10.8 102570 41
2010-04-26 13:51 51°12.432 2°49.397 4.9 279 10.8 102580 42
2010-04-26 13:52 51°12.491 2°49.383 4.1 284 10.9 102580 41
2010-04-26 13:53 51°12.552 2°49.411 3 283 11 102580 41
2010-04-26 13:54 51°12.6 2°49.459 2.6 283 11 102590 41
2010-04-26 13:55 51°12.632 2°49.505 2.3 283 11 102590 45
2010-04-26 13:56 51°12.661 2°49.539 2.5 286 11 102590 43
2010-04-26 13:57 51°12.684 2°49.567 2.5 285 11 102590 41
2010-04-26 13:58 51°12.704 2°49.589 1.6 285 11.1 102580 42
2010-04-26 13:59 51°12.72 2°49.607 2 281 11.1 102590 45
2010-04-26 14:00 51°12.734 2°49.623 1.8 285 11.1 102580 41
2010-04-26 14:01 51°12.745 2°49.635 3.2 283 11.1 102580 40
2010-04-26 14:02 51°12.754 2°49.646 3.6 285 11.2 102580 41
2010-04-26 14:03 51°12.761 2°49.657 4 278 11.2 102580 44
2010-04-26 14:04 51°12.767 2°49.666 4.1 280 11.3 102590 44
2010-04-26 14:05 51°12.772 2°49.677 3.7 279 11.3 102580 41
2010-04-26 14:06 51°12.778 2°49.688 4.3 285 11.3 102590 44
2010-04-26 14:07 51°12.783 2°49.7 3.8 280 11.3 102580 41
2010-04-26 14:08 51°12.787 2°49.712 3.2 284 11.3 102590 42
2010-04-26 14:09 51°12.79 2°49.723 4.7 277 11.4 102590 40
2010-04-26 14:10 51°12.793 2°49.735 4.4 283 11.4 102590 41
2010-04-26 14:11 51°12.798 2°49.749 3.6 281 11.3 102580 43
2010-04-26 14:12 51°12.824 2°49.768 3.2 280 11.3 102590 44
2010-04-26 14:13 51°12.866 2°49.804 2.6 283 11.3 102590 40
2010-04-26 14:14 51°12.897 2°49.875 2.7 75 11.2 102590 40
2010-04-26 14:15 51°12.923 2°49.961 2.1 80 11.2 102590 40
2010-04-26 14:16 51°12.955 2°50.053 1.8 283 11.2 102590 44
2010-04-26 14:17 51°12.99 2°50.143 2 284 11.2 102590 41
2010-04-26 14:18 51°13.025 2°50.233 2.5 285 11.2 102590 44
2010-04-26 14:19 51°13.059 2°50.324 1.5 278 11.2 102580 40
2010-04-26 14:20 51°13.092 2°50.416 2.3 -999 11.1 102590 41
2010-04-26 14:21 51°13.128 2°50.51 1.7 -999 11.1 102580 43
2010-04-26 14:22 51°13.162 2°50.597 2 278 11.1 102590 44
2010-04-26 14:23 51°13.197 2°50.69 1.5 -999 11.1 102590 44
2010-04-26 14:24 51°13.234 2°50.792 2.1 -999 11.1 102590 44
2010-04-26 14:25 51°13.273 2°50.899 2.4 283 11.1 102600 40
2010-04-26 14:26 51°13.314 2°51.006 2.2 285 11.1 102590 40
2010-04-26 14:27 51°13.355 2°51.113 1.8 281 11.1 102590 40
2010-04-26 14:28 51°13.394 2°51.221 1.7 -999 11.1 102590 40
2010-04-26 14:29 51°13.436 2°51.328 2.2 283 11.1 102600 40
2010-04-26 14:30 51°13.476 2°51.433 2.7 81 11 102590 40
2010-04-26 14:31 51°13.517 2°51.543 2.7 81 11 102590 44
2010-04-26 14:32 51°13.559 2°51.651 2.7 284 11 102590 41
2010-04-26 14:33 51°13.6 2°51.759 3 80 11 102590 44
2010-04-26 14:34 51°13.641 2°51.87 1.6 280 11 102590 41
2010-04-26 14:35 51°13.681 2°51.981 1.4 284 11 102590 40
2010-04-26 14:36 51°13.734 2°52.124 1.1 283 11 102590 42
2010-04-26 14:37 51°13.791 2°52.281 1.2 281 11.1 102590 40
2010-04-26 14:38 51°13.852 2°52.443 1.7 282 11.1 102590 44
2010-04-26 14:39 51°13.912 2°52.604 1.4 277 11.1 102590 41
2010-04-26 14:40 51°13.975 2°52.772 1.5 -999 11.1 102590 41
2010-04-26 14:41 51°14.04 2°52.944 1.7 278 11.1 102590 41
2010-04-26 14:42 51°14.1 2°53.103 1.3 -999 11.1 102590 44
2010-04-26 14:43 51°14.164 2°53.269 1.7 -999 11.1 102590 41
2010-04-26 14:44 51°14.225 2°53.43 1.8 75 11.1 102590 41
2010-04-26 14:45 51°14.284 2°53.593 2.3 -999 11.2 102590 39
2010-04-26 14:46 51°14.346 2°53.754 2.6 85 11.2 102590 42
2010-04-26 14:47 51°14.408 2°53.916 2.5 -999 11.2 102590 41
2010-04-26 14:48 51°14.466 2°54.069 2.4 303 11.3 102590 38
2010-04-26 14:49 51°14.525 2°54.221 2.7 -999 11.3 102590 40
2010-04-26 14:50 51°14.581 2°54.37 2.3 282 11.3 102590 44
2010-04-26 14:51 51°14.63 2°54.521 1.1 -999 11.3 102590 40
2010-04-26 14:52 51°14.617 2°54.758 1.7 -999 11.4 102590 42
2010-04-26 14:53 51°14.529 2°54.99 4.2 14 11.4 102590 40
2010-04-26 14:54 51°14.386 2°55.164 5.1 -999 11.3 102580 40
2010-04-26 14:55 51°14.234 2°55.32 4.6 -999 11.2 102590 40
2010-04-26 14:56 51°14.076 2°55.446 3.5 283 11.3 102590 40
2010-04-26 14:57 51°13.967 2°55.535 1.6 -999 11.4 102590 40
2010-04-26 14:58 51°13.879 2°55.599 3.1 354 11.5 102590 40
2010-04-26 14:59 51°13.8 2°55.658 2.1 354 11.6 102590 43
2010-04-26 15:00 51°13.751 2°55.722 3.8 20 11.7 102590 40
2010-04-26 15:01 51°13.706 2°55.815 2 34 11.8 102590 39